createdAt,value
2023-01-13T00:01:16.624Z,3.50
2023-01-13T00:03:44.457Z,3.10
2023-01-13T00:06:19.791Z,2.50
2023-01-13T00:08:51.606Z,3.20
2023-01-13T00:11:19.918Z,3.70
2023-01-13T00:13:47.364Z,3.50
2023-01-13T00:16:18.428Z,2.90
2023-01-13T00:18:46.969Z,3.40
2023-01-13T00:21:16.985Z,5.50
2023-01-13T00:23:44.831Z,4.00
2023-01-13T00:26:15.580Z,5.10
2023-01-13T00:28:42.719Z,3.60
2023-01-13T00:31:12.779Z,3.20
2023-01-13T00:33:40.527Z,3.00
2023-01-13T00:36:09.526Z,4.70
2023-01-13T00:38:38.938Z,3.10
2023-01-13T00:41:09.083Z,2.50
2023-01-13T00:43:37.639Z,3.20
2023-01-13T00:46:07.162Z,3.30
2023-01-13T00:48:35.009Z,2.90
2023-01-13T00:51:04.110Z,3.50
2023-01-13T00:53:35.760Z,2.30
2023-01-13T00:56:07.942Z,3.50
2023-01-13T00:58:36.232Z,3.90
2023-01-13T01:01:05.845Z,4.30
2023-01-13T01:03:33.744Z,3.70
2023-01-13T01:06:22.218Z,2.70
2023-01-13T01:08:49.788Z,3.10
2023-01-13T01:11:23.389Z,6.50
2023-01-13T01:13:52.729Z,3.40
2023-01-13T01:16:22.865Z,2.30
2023-01-13T01:18:51.731Z,2.70
2023-01-13T01:21:19.699Z,3.20
2023-01-13T01:23:47.237Z,3.70
2023-01-13T01:26:17.129Z,3.30
2023-01-13T01:28:45.631Z,3.50
2023-01-13T01:31:20.394Z,4.30
2023-01-13T01:33:48.557Z,5.30
2023-01-13T01:36:18.181Z,3.00
2023-01-13T01:38:45.918Z,3.10
2023-01-13T01:41:17.022Z,3.60
2023-01-13T01:44:04.084Z,2.30
2023-01-13T01:46:33.881Z,2.80
2023-01-13T01:49:07.653Z,3.10
2023-01-13T01:51:50.209Z,2.60
2023-01-13T01:54:27.654Z,4.20
2023-01-13T01:56:55.528Z,2.30
2023-01-13T01:59:28.576Z,2.20
2023-01-13T02:01:56.274Z,1.60
2023-01-13T02:04:28.566Z,3.70
2023-01-13T02:06:57.139Z,3.00
2023-01-13T02:09:26.420Z,1.70
2023-01-13T02:12:11.959Z,3.40
2023-01-13T02:14:40.158Z,2.80
2023-01-13T02:17:45.718Z,3.40
2023-01-13T02:20:38.882Z,2.10
2023-01-13T02:23:57.935Z,2.10
2023-01-13T02:26:55.767Z,2.80
2023-01-13T02:30:09.432Z,2.50
2023-01-13T02:32:50.074Z,5.50
2023-01-13T02:35:28.730Z,2.60
2023-01-13T02:37:58.033Z,2.40
2023-01-13T02:40:37.195Z,2.60
2023-01-13T02:43:22.577Z,2.00
2023-01-13T02:46:19.888Z,3.60
2023-01-13T02:48:50.976Z,2.80
2023-01-13T02:51:21.518Z,1.90
2023-01-13T02:53:52.647Z,3.30
2023-01-13T02:56:21.398Z,2.00
2023-01-13T02:58:49.612Z,2.00
2023-01-13T03:01:17.396Z,2.90
2023-01-13T03:03:44.740Z,1.80
2023-01-13T03:06:30.452Z,1.30
2023-01-13T03:09:30.129Z,2.50
2023-01-13T03:12:15.855Z,3.70
2023-01-13T03:14:48.279Z,2.30
2023-01-13T03:17:18.656Z,1.90
2023-01-13T03:20:04.710Z,4.00
2023-01-13T03:22:38.400Z,1.90
2023-01-13T03:25:40.793Z,3.40
2023-01-13T03:28:15.739Z,2.50
2023-01-13T03:30:59.952Z,4.20
2023-01-13T03:33:37.661Z,4.40
2023-01-13T03:36:09.355Z,2.40
2023-01-13T03:38:50.982Z,2.80
2023-01-13T03:41:34.161Z,2.10
2023-01-13T03:44:24.830Z,2.90
2023-01-13T03:47:01.541Z,2.30
2023-01-13T03:49:37.157Z,2.00
2023-01-13T03:52:09.929Z,2.30
2023-01-13T03:54:46.830Z,3.30
2023-01-13T03:57:17.404Z,2.90
2023-01-13T03:59:49.047Z,3.80
2023-01-13T04:02:43.968Z,2.20
2023-01-13T04:05:12.036Z,1.80
2023-01-13T04:07:53.097Z,1.60
2023-01-13T04:10:36.906Z,2.60
2023-01-13T04:13:14.710Z,2.40
2023-01-13T04:15:44.338Z,2.20
2023-01-13T04:18:31.299Z,2.00
2023-01-13T04:21:01.338Z,4.00
2023-01-13T04:23:29.220Z,2.80
2023-01-13T04:25:56.926Z,1.70
2023-01-13T04:28:24.193Z,1.30
2023-01-13T04:30:51.457Z,3.20
2023-01-13T04:33:19.745Z,1.80
2023-01-13T04:35:47.674Z,2.40
2023-01-13T04:38:17.262Z,1.70
2023-01-13T04:40:44.768Z,1.50
2023-01-13T04:43:12.670Z,2.80
2023-01-13T04:45:39.596Z,1.90
2023-01-13T04:48:06.982Z,2.90
2023-01-13T04:50:34.224Z,2.10
2023-01-13T04:53:01.486Z,2.00
2023-01-13T04:55:28.933Z,2.40
2023-01-13T04:57:56.009Z,1.40
2023-01-13T05:00:23.974Z,1.80
2023-01-13T05:02:52.415Z,2.30
2023-01-13T05:05:19.439Z,2.00
2023-01-13T05:07:46.609Z,2.10
2023-01-13T05:10:13.865Z,2.50
2023-01-13T05:13:00.467Z,2.40
2023-01-13T05:15:46.114Z,3.30
2023-01-13T05:18:13.401Z,2.80
2023-01-13T05:20:40.624Z,2.60
2023-01-13T05:23:26.815Z,2.70
2023-01-13T05:25:53.938Z,3.30
2023-01-13T05:28:21.188Z,1.40
2023-01-13T05:30:52.759Z,1.90
2023-01-13T05:33:21.021Z,2.50
2023-01-13T05:35:48.974Z,1.40
2023-01-13T05:38:17.387Z,1.40
2023-01-13T05:41:03.295Z,2.30
2023-01-13T05:43:30.792Z,1.80
2023-01-13T05:46:02.800Z,1.70
2023-01-13T05:48:35.657Z,2.00
2023-01-13T05:51:04.978Z,2.10
2023-01-13T05:53:32.390Z,1.60
2023-01-13T05:56:00.170Z,2.30
2023-01-13T05:58:28.517Z,2.20
2023-01-13T06:01:07.455Z,1.70
2023-01-13T06:03:34.790Z,1.90
2023-01-13T06:06:04.325Z,1.70
2023-01-13T06:08:31.952Z,5.70
2023-01-13T06:10:59.036Z,1.90
2023-01-13T06:13:26.022Z,1.60
2023-01-13T06:15:59.466Z,1.30
2023-01-13T06:18:27.195Z,2.90
2023-01-13T06:20:54.268Z,1.60
2023-01-13T06:23:21.414Z,2.00
2023-01-13T06:26:14.583Z,2.30
2023-01-13T06:28:41.680Z,1.90
2023-01-13T06:31:10.627Z,2.40
2023-01-13T06:33:42.835Z,2.20
2023-01-13T06:36:22.421Z,2.10
2023-01-13T06:38:53.732Z,1.80
2023-01-13T06:41:41.326Z,2.10
2023-01-13T06:44:14.606Z,1.90
2023-01-13T06:46:41.874Z,1.90
2023-01-13T06:49:09.050Z,2.20
2023-01-13T06:51:36.068Z,2.50
2023-01-13T06:54:03.215Z,3.00
2023-01-13T06:56:30.138Z,1.60
2023-01-13T06:58:57.047Z,1.60
2023-01-13T07:01:24.128Z,1.10
2023-01-13T07:03:51.802Z,2.10
2023-01-13T07:06:18.886Z,1.70
2023-01-13T07:08:45.906Z,2.80
2023-01-13T07:11:12.834Z,1.80
2023-01-13T07:13:58.321Z,2.70
2023-01-13T07:16:28.284Z,4.00
2023-01-13T07:18:58.159Z,2.20
2023-01-13T07:21:25.126Z,1.80
2023-01-13T07:23:52.142Z,3.60
2023-01-13T07:26:19.114Z,3.00
2023-01-13T07:28:46.059Z,2.30
2023-01-13T07:31:17.167Z,2.00
2023-01-13T07:33:44.275Z,4.00
2023-01-13T07:36:11.588Z,4.20
2023-01-13T07:38:40.057Z,6.90
2023-01-13T07:41:42.898Z,3.70
2023-01-13T07:44:10.958Z,4.20
2023-01-13T07:46:39.045Z,2.90
2023-01-13T07:49:06.577Z,2.10
2023-01-13T07:51:39.786Z,3.10
2023-01-13T07:54:07.397Z,1.80
2023-01-13T07:56:34.515Z,4.40
2023-01-13T07:59:01.852Z,3.40
2023-01-13T08:01:29.249Z,6.50
2023-01-13T08:03:56.569Z,2.50
2023-01-13T08:06:23.705Z,5.50
2023-01-13T08:08:51.554Z,3.10
2023-01-13T08:11:22.645Z,3.40
2023-01-13T08:13:50.528Z,2.30
2023-01-13T08:16:18.100Z,3.40
2023-01-13T08:18:45.344Z,3.60
2023-01-13T08:21:14.354Z,3.20
2023-01-13T08:23:43.790Z,3.60
2023-01-13T08:26:14.350Z,4.30
2023-01-13T08:28:41.909Z,3.10
2023-01-13T08:31:14.465Z,2.10
2023-01-13T08:33:41.893Z,2.40
2023-01-13T08:36:12.507Z,2.50
2023-01-13T08:38:40.413Z,3.60
2023-01-13T08:41:37.275Z,3.30
2023-01-13T08:44:05.308Z,4.10
2023-01-13T08:46:32.554Z,3.20
2023-01-13T08:48:59.501Z,2.30
2023-01-13T08:51:26.508Z,3.00
2023-01-13T08:53:53.405Z,3.00
2023-01-13T08:56:20.472Z,4.70
2023-01-13T08:58:47.564Z,2.30
2023-01-13T09:01:21.706Z,1.90
2023-01-13T09:03:48.829Z,3.40
2023-01-13T09:06:15.806Z,3.00
2023-01-13T09:08:42.900Z,3.60
2023-01-13T09:11:44.828Z,3.40
2023-01-13T09:14:11.906Z,2.00
2023-01-13T09:16:38.835Z,4.10
2023-01-13T09:19:05.903Z,2.80
2023-01-13T09:21:33.435Z,4.00
2023-01-13T09:24:00.503Z,2.40
2023-01-13T09:26:27.439Z,2.80
2023-01-13T09:28:54.477Z,3.70
2023-01-13T09:31:21.438Z,3.70
2023-01-13T09:34:07.302Z,2.80
2023-01-13T09:36:34.391Z,2.40
2023-01-13T09:39:01.280Z,3.60
2023-01-13T09:41:50.022Z,3.70
2023-01-13T09:44:36.577Z,3.70
2023-01-13T09:47:07.323Z,4.40
2023-01-13T09:49:39.354Z,2.70
2023-01-13T09:52:25.773Z,5.10
2023-01-13T09:55:10.139Z,6.00
2023-01-13T09:57:40.059Z,3.30
2023-01-13T10:00:14.118Z,3.10
2023-01-13T10:03:09.400Z,3.90
2023-01-13T10:05:44.409Z,4.50
2023-01-13T10:08:16.671Z,3.30
2023-01-13T10:10:48.802Z,7.40
2023-01-13T10:13:38.090Z,4.80
2023-01-13T10:16:11.185Z,2.70
2023-01-13T10:19:06.158Z,3.00
2023-01-13T10:21:42.333Z,1.70
2023-01-13T10:24:36.862Z,3.00
2023-01-13T10:27:12.817Z,4.40
2023-01-13T10:29:39.878Z,4.40
2023-01-13T10:32:06.882Z,2.00
2023-01-13T10:34:58.180Z,4.50
2023-01-13T10:37:28.450Z,4.60
2023-01-13T10:39:57.660Z,2.10
2023-01-13T10:42:25.778Z,3.70
2023-01-13T10:44:52.867Z,3.30
2023-01-13T10:47:29.439Z,2.40
2023-01-13T10:50:01.531Z,2.80
2023-01-13T10:52:36.989Z,2.30
2023-01-13T10:55:23.986Z,4.50
2023-01-13T10:57:50.982Z,3.80
2023-01-13T11:00:33.083Z,3.10
2023-01-13T11:03:15.790Z,2.20
2023-01-13T11:05:51.727Z,5.30
2023-01-13T11:08:22.035Z,1.90
2023-01-13T11:10:52.131Z,4.90
2023-01-13T11:13:57.885Z,2.90
2023-01-13T11:16:26.357Z,2.10
2023-01-13T11:19:13.289Z,2.20
2023-01-13T11:21:55.444Z,1.60
2023-01-13T11:24:38.235Z,1.70
2023-01-13T11:27:13.491Z,2.70
2023-01-13T11:30:10.163Z,2.50
2023-01-13T11:32:55.305Z,8.90
2023-01-13T11:35:22.967Z,18.60
2023-01-13T11:38:02.029Z,23.80
2023-01-13T11:40:41.353Z,38.90
2023-01-13T11:43:20.703Z,42.20
2023-01-13T11:46:00.232Z,43.90
2023-01-13T11:48:31.703Z,50.70
2023-01-13T11:51:13.969Z,56.30
2023-01-13T11:54:18.352Z,67.30
2023-01-13T11:57:03.995Z,60.00
2023-01-13T11:59:54.007Z,58.60
2023-01-13T12:02:34.046Z,59.60
2023-01-13T12:05:26.186Z,62.20
2023-01-13T12:08:16.859Z,58.10
2023-01-13T12:10:46.952Z,51.40
2023-01-13T12:13:58.250Z,55.80
2023-01-13T12:16:30.789Z,55.20
2023-01-13T12:19:22.017Z,51.30
2023-01-13T12:22:13.677Z,51.10
2023-01-13T12:24:52.855Z,32.70
2023-01-13T12:27:58.434Z,30.40
2023-01-13T12:30:46.014Z,29.40
2023-01-13T12:33:20.946Z,24.80
2023-01-13T12:36:02.618Z,29.70
2023-01-13T12:38:49.859Z,27.00
2023-01-13T12:41:24.831Z,25.60
2023-01-13T12:44:12.030Z,28.30
2023-01-13T12:46:56.049Z,25.10
2023-01-13T12:49:33.030Z,26.60
2023-01-13T12:52:11.731Z,28.00
2023-01-13T12:54:41.693Z,25.80
2023-01-13T12:57:27.608Z,25.90
2023-01-13T13:00:03.872Z,26.00
2023-01-13T13:02:39.829Z,25.80
2023-01-13T13:05:36.392Z,28.30
2023-01-13T13:08:40.985Z,22.00
2023-01-13T13:11:32.827Z,24.00
2023-01-13T13:14:11.671Z,23.80
2023-01-13T13:16:47.188Z,27.60
2023-01-13T13:19:20.305Z,21.50
2023-01-13T13:22:12.266Z,22.00
2023-01-13T13:24:43.420Z,21.00
2023-01-13T13:27:24.995Z,22.20
2023-01-13T13:30:12.960Z,22.60
2023-01-13T13:32:53.850Z,19.50
2023-01-13T13:35:58.995Z,19.30
2023-01-13T13:39:00.757Z,19.80
2023-01-13T13:41:48.482Z,21.70
2023-01-13T13:44:39.162Z,19.10
2023-01-13T13:47:07.526Z,20.90
2023-01-13T13:49:36.155Z,17.50
2023-01-13T13:52:15.326Z,18.80
2023-01-13T13:54:47.921Z,18.30
2023-01-13T13:57:33.613Z,16.50
2023-01-13T14:00:01.761Z,16.60
2023-01-13T14:02:39.882Z,18.80
2023-01-13T14:05:08.342Z,17.20
2023-01-13T14:07:46.868Z,18.40
2023-01-13T14:10:27.870Z,13.60
2023-01-13T14:12:54.806Z,13.50
2023-01-13T14:15:35.053Z,13.40
2023-01-13T14:18:04.674Z,15.90
2023-01-13T14:20:32.371Z,13.20
2023-01-13T14:23:01.842Z,13.30
2023-01-13T14:25:36.832Z,14.20
2023-01-13T14:28:20.974Z,12.70
2023-01-13T14:30:50.223Z,10.50
2023-01-13T14:33:39.116Z,12.40
2023-01-13T14:36:19.229Z,10.70
2023-01-13T14:38:48.929Z,12.20
2023-01-13T14:41:24.089Z,10.60
2023-01-13T14:43:54.333Z,10.40
2023-01-13T14:46:23.385Z,10.90
2023-01-13T14:48:59.386Z,9.40
2023-01-13T14:51:29.191Z,8.70
2023-01-13T14:53:57.500Z,8.60
2023-01-13T14:56:44.500Z,10.00
2023-01-13T14:59:34.400Z,8.90
2023-01-13T15:02:22.767Z,8.40
2023-01-13T15:04:54.188Z,9.70
2023-01-13T15:07:29.657Z,8.40
2023-01-13T15:10:02.823Z,10.10
2023-01-13T15:12:36.027Z,10.90
2023-01-13T15:15:25.471Z,8.90
2023-01-13T15:17:53.127Z,10.20
2023-01-13T15:20:22.623Z,7.80
2023-01-13T15:22:51.661Z,8.50
2023-01-13T15:25:20.296Z,6.20
2023-01-13T15:27:52.281Z,10.30
2023-01-13T15:30:26.029Z,6.40
2023-01-13T15:32:55.329Z,6.90
2023-01-13T15:35:24.659Z,8.60
2023-01-13T15:37:52.675Z,7.70
2023-01-13T15:40:22.215Z,7.90
2023-01-13T15:43:07.935Z,6.70
2023-01-13T15:45:56.465Z,5.70
2023-01-13T15:48:25.460Z,6.90
2023-01-13T15:50:52.452Z,7.80
2023-01-13T15:53:20.004Z,7.30
2023-01-13T15:55:52.348Z,7.10
2023-01-13T15:58:24.310Z,5.40
2023-01-13T16:00:51.379Z,5.00
2023-01-13T16:03:18.507Z,5.80
2023-01-13T16:05:45.686Z,5.90
2023-01-13T16:08:20.622Z,6.70
2023-01-13T16:10:48.317Z,7.50
2023-01-13T16:13:16.804Z,5.20
2023-01-13T16:15:49.375Z,6.90
2023-01-13T16:18:24.433Z,6.90
2023-01-13T16:20:53.699Z,6.80
2023-01-13T16:23:21.814Z,5.10
2023-01-13T16:25:49.793Z,4.70
2023-01-13T16:28:22.049Z,5.00
2023-01-13T16:30:49.065Z,5.10
2023-01-13T16:33:16.081Z,5.10
2023-01-13T16:36:10.225Z,4.30
2023-01-13T16:38:30.892Z,4.90
2023-01-13T16:40:57.884Z,4.80
2023-01-13T16:43:25.006Z,4.60
2023-01-13T16:45:51.964Z,4.00
2023-01-13T16:48:20.596Z,4.50
2023-01-13T16:50:47.745Z,6.30
2023-01-13T16:53:15.215Z,4.40
2023-01-13T16:55:43.660Z,4.90
2023-01-13T16:58:18.030Z,3.90
2023-01-13T17:00:48.344Z,3.40
2023-01-13T17:03:16.626Z,4.90
2023-01-13T17:05:47.149Z,3.80
2023-01-13T17:08:18.000Z,4.90
2023-01-13T17:10:46.268Z,5.80
2023-01-13T17:13:16.955Z,3.50
2023-01-13T17:15:46.365Z,4.70
2023-01-13T17:18:13.850Z,4.00
2023-01-13T17:20:41.429Z,3.70
2023-01-13T17:23:08.592Z,4.20
2023-01-13T17:25:38.319Z,5.80
2023-01-13T17:28:05.200Z,5.30
2023-01-13T17:30:32.215Z,4.10
2023-01-13T17:32:59.204Z,3.90
2023-01-13T17:35:29.254Z,3.30
2023-01-13T17:37:56.499Z,3.20
2023-01-13T17:40:23.778Z,3.20
2023-01-13T17:42:51.036Z,4.30
2023-01-13T17:45:18.172Z,4.80
2023-01-13T17:47:47.397Z,3.00
2023-01-13T17:50:15.031Z,4.10
2023-01-13T17:52:42.357Z,4.30
2023-01-13T17:55:09.558Z,5.30
2023-01-13T17:57:36.910Z,3.40
2023-01-13T18:00:05.783Z,3.60
2023-01-13T18:02:39.420Z,3.30
2023-01-13T18:05:06.631Z,3.60
2023-01-13T18:07:37.214Z,3.10
2023-01-13T18:10:04.561Z,3.80
2023-01-13T18:12:31.624Z,3.50
2023-01-13T18:14:58.646Z,3.40
2023-01-13T18:17:25.654Z,2.50
2023-01-13T18:20:11.030Z,3.20
2023-01-13T18:22:56.817Z,2.30
2023-01-13T18:25:42.310Z,2.70
2023-01-13T18:28:09.347Z,3.10
2023-01-13T18:30:37.065Z,2.70
2023-01-13T18:33:04.253Z,4.40
2023-01-13T18:35:31.615Z,3.70
2023-01-13T18:37:58.653Z,2.30
2023-01-13T18:40:25.906Z,5.10
2023-01-13T18:42:54.982Z,3.80
2023-01-13T18:45:29.106Z,3.30
2023-01-13T18:47:58.563Z,3.10
2023-01-13T18:50:27.720Z,2.70
2023-01-13T18:52:56.422Z,4.70
2023-01-13T18:55:23.411Z,5.40
2023-01-13T18:57:51.424Z,2.70
2023-01-13T19:00:20.566Z,3.00
2023-01-13T19:02:48.645Z,5.60
2023-01-13T19:05:15.555Z,4.10
2023-01-13T19:07:46.512Z,3.00
2023-01-13T19:10:13.688Z,2.80
2023-01-13T19:12:40.599Z,3.60
2023-01-13T19:15:08.233Z,5.00
2023-01-13T19:17:36.663Z,6.70
2023-01-13T19:20:05.263Z,7.10
2023-01-13T19:22:34.495Z,5.50
2023-01-13T19:25:03.167Z,9.80
2023-01-13T19:27:30.796Z,11.00
2023-01-13T19:30:00.531Z,13.10
2023-01-13T19:32:28.878Z,19.20
2023-01-13T19:34:59.428Z,13.50
2023-01-13T19:37:34.369Z,14.50
2023-01-13T19:40:02.471Z,20.80
2023-01-13T19:42:48.537Z,14.80
2023-01-13T19:45:29.087Z,20.80
2023-01-13T19:47:57.290Z,19.10
2023-01-13T19:50:25.286Z,16.50
2023-01-13T19:52:52.343Z,19.40
2023-01-13T19:55:20.084Z,18.60
2023-01-13T19:57:47.277Z,18.70
2023-01-13T20:00:18.971Z,18.70
2023-01-13T20:02:49.846Z,20.20
2023-01-13T20:05:21.492Z,16.40
2023-01-13T20:07:50.832Z,20.60
2023-01-13T20:10:20.044Z,16.30
2023-01-13T20:12:47.490Z,20.30
2023-01-13T20:15:14.719Z,17.20
2023-01-13T20:17:41.933Z,18.20
2023-01-13T20:20:10.779Z,20.80
2023-01-13T20:22:41.140Z,20.20
2023-01-13T20:25:09.070Z,13.30
2023-01-13T20:27:36.737Z,14.10
2023-01-13T20:30:05.626Z,13.40
2023-01-13T20:32:32.643Z,17.70
2023-01-13T20:34:59.668Z,18.00
2023-01-13T20:37:27.020Z,14.80
2023-01-13T20:39:55.549Z,10.70
2023-01-13T20:42:41.441Z,15.40
2023-01-13T20:45:08.932Z,17.60
2023-01-13T20:47:35.935Z,13.20
2023-01-13T20:50:02.951Z,19.60
2023-01-13T20:52:30.059Z,14.20
2023-01-13T20:54:57.129Z,13.40
2023-01-13T20:57:24.169Z,13.40
2023-01-13T20:59:51.430Z,14.30
2023-01-13T21:02:19.398Z,10.60
2023-01-13T21:04:46.359Z,13.90
2023-01-13T21:07:13.425Z,15.40
2023-01-13T21:09:40.457Z,12.60
2023-01-13T21:12:26.599Z,14.40
2023-01-13T21:15:11.828Z,14.30
2023-01-13T21:17:57.594Z,13.30
2023-01-13T21:20:24.622Z,12.50
2023-01-13T21:22:51.774Z,14.60
2023-01-13T21:25:19.412Z,12.00
2023-01-13T21:27:46.464Z,13.10
2023-01-13T21:30:15.672Z,14.80
2023-01-13T21:32:44.276Z,12.10
2023-01-13T21:35:12.749Z,12.20
2023-01-13T21:37:41.624Z,12.00
2023-01-13T21:40:10.424Z,10.40
2023-01-13T21:42:55.973Z,11.30
2023-01-13T21:45:41.705Z,11.60
2023-01-13T21:48:08.694Z,10.40
2023-01-13T21:50:38.047Z,9.70
2023-01-13T21:53:05.208Z,10.80
2023-01-13T21:55:33.044Z,10.60
2023-01-13T21:58:13.641Z,10.40
2023-01-13T22:00:42.916Z,10.80
2023-01-13T22:03:11.525Z,9.30
2023-01-13T22:05:41.526Z,10.20
2023-01-13T22:08:12.360Z,9.30
2023-01-13T22:10:58.114Z,12.20
2023-01-13T22:13:45.385Z,8.90
2023-01-13T22:16:13.473Z,12.70
2023-01-13T22:18:40.700Z,8.00
2023-01-13T22:21:07.988Z,13.40
2023-01-13T22:23:34.998Z,8.90
2023-01-13T22:26:05.918Z,9.20
2023-01-13T22:28:40.184Z,8.40
2023-01-13T22:31:12.388Z,8.80
2023-01-13T22:33:40.230Z,10.40
2023-01-13T22:36:08.180Z,8.40
2023-01-13T22:38:35.284Z,10.40
2023-01-13T22:41:04.931Z,7.90
2023-01-13T22:43:32.651Z,8.90
2023-01-13T22:46:02.103Z,10.00
2023-01-13T22:48:30.249Z,9.30
2023-01-13T22:50:57.146Z,7.40
2023-01-13T22:53:24.137Z,7.30
2023-01-13T22:55:58.656Z,8.00
2023-01-13T22:58:26.461Z,10.10
2023-01-13T23:00:53.664Z,10.00
2023-01-13T23:03:20.788Z,11.70
2023-01-13T23:05:48.893Z,10.00
2023-01-13T23:08:15.882Z,7.20
2023-01-13T23:10:42.877Z,9.40
2023-01-13T23:13:10.582Z,6.60
2023-01-13T23:15:37.818Z,9.30
2023-01-13T23:18:04.709Z,11.10
2023-01-13T23:20:31.720Z,9.00
2023-01-13T23:22:59.653Z,9.90
2023-01-13T23:25:27.397Z,8.90
2023-01-13T23:27:56.727Z,7.70
2023-01-13T23:30:24.171Z,9.90
2023-01-13T23:32:51.251Z,9.10
2023-01-13T23:35:18.682Z,8.70
2023-01-13T23:37:45.712Z,8.80
2023-01-13T23:40:13.631Z,9.80
2023-01-13T23:42:40.611Z,9.90
2023-01-13T23:45:08.340Z,7.80
2023-01-13T23:47:39.530Z,8.30
2023-01-13T23:50:08.829Z,9.00
2023-01-13T23:52:35.899Z,8.90
2023-01-13T23:55:02.876Z,7.20
2023-01-13T23:57:29.837Z,7.50
2023-01-13T23:59:57.019Z,7.20
